createdAt,value
2018-07-10T00:00:01.000Z,984.74
2018-07-10T00:01:01.004Z,984.72
2018-07-10T00:02:00.927Z,984.71
2018-07-10T00:03:00.899Z,984.66
2018-07-10T00:04:00.860Z,984.66
2018-07-10T00:05:00.829Z,984.64
2018-07-10T00:06:00.801Z,984.67
2018-07-10T00:07:00.773Z,984.63
2018-07-10T00:08:00.779Z,984.64
2018-07-10T00:09:00.703Z,984.61
2018-07-10T00:10:00.659Z,984.56
2018-07-10T00:11:00.634Z,984.53
2018-07-10T00:12:00.611Z,984.53
2018-07-10T00:13:00.566Z,984.55
2018-07-10T00:14:00.523Z,984.59
2018-07-10T00:15:00.491Z,984.65
2018-07-10T00:16:00.454Z,984.64
2018-07-10T00:17:00.429Z,984.64
2018-07-10T00:18:00.400Z,984.65
2018-07-10T00:19:00.365Z,984.65
2018-07-10T00:20:00.324Z,984.63
2018-07-10T00:21:00.281Z,984.63
2018-07-10T00:22:00.257Z,984.61
2018-07-10T00:23:00.228Z,984.57
2018-07-10T00:24:00.187Z,984.52
2018-07-10T00:25:00.154Z,984.50
2018-07-10T00:26:00.115Z,984.49
2018-07-10T00:27:00.066Z,984.48
2018-07-10T00:28:00.042Z,984.45
2018-07-10T00:29:00.002Z,984.49
2018-07-10T00:29:59.986Z,984.51
2018-07-10T00:30:59.937Z,984.51
2018-07-10T00:31:59.906Z,984.51
2018-07-10T00:32:59.872Z,984.49
2018-07-10T00:33:59.833Z,984.47
2018-07-10T00:34:59.812Z,984.47
2018-07-10T00:35:59.765Z,984.49
2018-07-10T00:36:59.735Z,984.46
2018-07-10T00:37:59.686Z,984.49
2018-07-10T00:38:59.684Z,984.47
2018-07-10T00:39:59.622Z,984.49
2018-07-10T00:40:59.699Z,984.42
2018-07-10T00:41:59.570Z,984.42
2018-07-10T00:42:59.519Z,984.42
2018-07-10T00:43:59.486Z,984.47
2018-07-10T00:44:59.465Z,984.48
2018-07-10T00:45:59.438Z,984.47
2018-07-10T00:46:59.384Z,984.52
2018-07-10T00:47:59.349Z,984.47
2018-07-10T00:48:59.315Z,984.52
2018-07-10T00:49:59.283Z,984.48
2018-07-10T00:50:59.243Z,984.50
2018-07-10T00:51:59.246Z,984.47
2018-07-10T00:52:59.192Z,984.48
2018-07-10T00:53:59.148Z,984.45
2018-07-10T00:54:59.122Z,984.44
2018-07-10T00:55:59.097Z,984.44
2018-07-10T00:56:59.054Z,984.46
2018-07-10T00:57:59.013Z,984.40
2018-07-10T00:58:58.981Z,984.47
2018-07-10T00:59:58.953Z,984.46
2018-07-10T01:00:58.921Z,984.51
2018-07-10T01:01:58.865Z,984.52
2018-07-10T01:02:58.840Z,984.51
2018-07-10T01:03:58.816Z,984.55
2018-07-10T01:04:58.774Z,984.53
2018-07-10T01:05:58.728Z,984.53
2018-07-10T01:06:58.726Z,984.50
2018-07-10T01:07:58.674Z,984.49
2018-07-10T01:08:58.642Z,984.53
2018-07-10T01:09:58.601Z,984.48
2018-07-10T01:10:58.563Z,984.51
2018-07-10T01:11:58.558Z,984.54
2018-07-10T01:12:58.507Z,984.54
2018-07-10T01:13:58.532Z,984.57
2018-07-10T01:14:58.885Z,984.57
2018-07-10T01:15:58.426Z,984.59
2018-07-10T01:16:58.371Z,984.60
2018-07-10T01:17:58.337Z,984.60
2018-07-10T01:18:58.372Z,984.53
2018-07-10T01:19:58.253Z,984.58
2018-07-10T01:20:58.216Z,984.56
2018-07-10T01:21:58.345Z,984.52
2018-07-10T01:22:58.179Z,984.52
2018-07-10T01:23:58.145Z,984.49
2018-07-10T01:24:58.107Z,984.48
2018-07-10T01:25:58.078Z,984.45
2018-07-10T01:26:58.033Z,984.41
2018-07-10T01:27:57.978Z,984.41
2018-07-10T01:28:57.958Z,984.36
2018-07-10T01:29:57.908Z,984.40
2018-07-10T01:30:57.895Z,984.38
2018-07-10T01:31:57.842Z,984.45
2018-07-10T01:32:57.845Z,984.48
2018-07-10T01:33:57.797Z,984.52
2018-07-10T01:34:57.748Z,984.50
2018-07-10T01:35:57.716Z,984.50
2018-07-10T01:36:57.666Z,984.45
2018-07-10T01:37:57.627Z,984.45
2018-07-10T01:38:57.602Z,984.43
2018-07-10T01:39:57.562Z,984.50
2018-07-10T01:40:57.536Z,984.48
2018-07-10T01:41:57.497Z,984.52
2018-07-10T01:42:57.482Z,984.47
2018-07-10T01:43:57.430Z,984.44
2018-07-10T01:44:57.395Z,984.45
2018-07-10T01:45:57.473Z,984.43
2018-07-10T01:46:57.362Z,984.47
2018-07-10T01:47:57.290Z,984.47
2018-07-10T01:48:57.250Z,984.44
2018-07-10T01:49:57.224Z,984.44
2018-07-10T01:50:57.217Z,984.43
2018-07-10T01:51:57.182Z,984.38
2018-07-10T01:52:57.119Z,984.37
2018-07-10T01:53:57.095Z,984.38
2018-07-10T01:54:57.071Z,984.40
2018-07-10T01:55:57.027Z,984.39
2018-07-10T01:56:56.976Z,984.39
2018-07-10T01:57:56.965Z,984.35
2018-07-10T01:58:56.950Z,984.28
2018-07-10T01:59:56.882Z,984.22
2018-07-10T02:00:56.852Z,984.17
2018-07-10T02:01:56.820Z,984.24
2018-07-10T02:02:56.774Z,984.21
2018-07-10T02:03:56.825Z,984.19
2018-07-10T02:04:56.751Z,984.18
2018-07-10T02:05:56.670Z,984.15
2018-07-10T02:06:56.623Z,984.11
2018-07-10T02:07:56.595Z,984.09
2018-07-10T02:08:56.559Z,984.09
2018-07-10T02:09:56.523Z,984.10
2018-07-10T02:10:56.480Z,984.08
2018-07-10T02:11:56.497Z,984.07
2018-07-10T02:12:56.407Z,984.05
2018-07-10T02:13:56.419Z,984.06
2018-07-10T02:14:56.357Z,984.05
2018-07-10T02:15:56.345Z,984.05
2018-07-10T02:16:56.307Z,984.02
2018-07-10T02:17:56.243Z,984.02
2018-07-10T02:18:56.215Z,984.00
2018-07-10T02:19:56.186Z,984.00
2018-07-10T02:20:56.133Z,983.97
2018-07-10T02:21:56.113Z,983.97
2018-07-10T02:22:56.063Z,983.95
2018-07-10T02:23:56.044Z,983.97
2018-07-10T02:24:56.012Z,983.95
2018-07-10T02:25:55.963Z,983.95
2018-07-10T02:26:55.978Z,983.91
2018-07-10T02:27:55.896Z,983.90
2018-07-10T02:28:55.866Z,983.88
2018-07-10T02:29:55.826Z,983.87
2018-07-10T02:30:55.807Z,983.86
2018-07-10T02:31:55.759Z,983.91
2018-07-10T02:32:55.730Z,983.90
2018-07-10T02:33:55.700Z,983.89
2018-07-10T02:34:55.672Z,983.96
2018-07-10T02:35:55.655Z,983.89
2018-07-10T02:36:55.592Z,983.91
2018-07-10T02:37:55.556Z,983.87
2018-07-10T02:38:55.510Z,983.86
2018-07-10T02:39:55.475Z,983.85
2018-07-10T02:40:55.439Z,983.84
2018-07-10T02:41:55.412Z,983.80
2018-07-10T02:42:55.381Z,983.80
2018-07-10T02:43:55.348Z,983.74
2018-07-10T02:44:55.327Z,983.71
2018-07-10T02:45:55.276Z,983.65
2018-07-10T02:46:55.259Z,983.63
2018-07-10T02:47:55.211Z,983.62
2018-07-10T02:48:55.169Z,983.63
2018-07-10T02:49:55.161Z,983.66
2018-07-10T02:50:55.098Z,983.65
2018-07-10T02:51:55.075Z,983.64
2018-07-10T02:52:55.063Z,983.64
2018-07-10T02:53:55.003Z,983.69
2018-07-10T02:54:55.099Z,983.65
2018-07-10T02:55:54.935Z,983.65
2018-07-10T02:56:54.905Z,983.69
2018-07-10T02:57:54.866Z,983.68
2018-07-10T02:58:54.826Z,983.64
2018-07-10T02:59:54.788Z,983.61
2018-07-10T03:00:54.762Z,983.57
2018-07-10T03:01:54.723Z,983.56
2018-07-10T03:02:54.695Z,983.58
2018-07-10T03:03:54.728Z,983.59
2018-07-10T03:04:54.666Z,983.61
2018-07-10T03:05:54.617Z,983.64
2018-07-10T03:06:54.660Z,983.66
2018-07-10T03:07:54.709Z,983.63
2018-07-10T03:08:54.576Z,983.62
2018-07-10T03:09:54.589Z,983.64
2018-07-10T03:10:54.579Z,983.64
2018-07-10T03:11:54.425Z,983.61
2018-07-10T03:12:54.450Z,983.61
2018-07-10T03:13:54.668Z,983.58
2018-07-10T03:14:54.537Z,983.59
2018-07-10T03:15:54.368Z,983.58
2018-07-10T03:16:54.320Z,983.59
2018-07-10T03:17:54.249Z,983.54
2018-07-10T03:18:54.134Z,983.52
2018-07-10T03:19:54.120Z,983.52
2018-07-10T03:20:54.063Z,983.53
2018-07-10T03:21:54.043Z,983.53
2018-07-10T03:22:54.950Z,983.55
2018-07-10T03:23:53.981Z,983.53
2018-07-10T03:24:56.279Z,983.47
2018-07-10T03:25:53.901Z,983.39
2018-07-10T03:26:53.884Z,983.38
2018-07-10T03:27:53.883Z,983.48
2018-07-10T03:28:53.793Z,983.47
2018-07-10T03:29:53.775Z,983.50
2018-07-10T03:30:53.735Z,983.50
2018-07-10T03:31:54.659Z,983.51
2018-07-10T03:32:53.732Z,983.50
2018-07-10T03:33:53.639Z,983.55
2018-07-10T03:34:54.245Z,983.55
2018-07-10T03:35:53.544Z,983.52
2018-07-10T03:36:53.537Z,983.52
2018-07-10T03:37:53.495Z,983.52
2018-07-10T03:38:53.462Z,983.50
2018-07-10T03:39:53.467Z,983.52
2018-07-10T03:40:53.375Z,983.52
2018-07-10T03:41:53.352Z,983.54
2018-07-10T03:42:53.339Z,983.56
2018-07-10T03:43:53.659Z,983.58
2018-07-10T03:44:53.241Z,983.63
2018-07-10T03:45:53.351Z,983.59
2018-07-10T03:46:53.183Z,983.62
2018-07-10T03:47:53.199Z,983.57
2018-07-10T03:48:53.156Z,983.58
2018-07-10T03:49:53.105Z,983.54
2018-07-10T03:50:53.044Z,983.55
2018-07-10T03:51:53.016Z,983.51
2018-07-10T03:52:53.001Z,983.52
2018-07-10T03:53:52.930Z,983.50
2018-07-10T03:54:52.879Z,983.47
2018-07-10T03:55:52.845Z,983.46
2018-07-10T03:56:52.817Z,983.41
2018-07-10T03:57:52.817Z,983.45
2018-07-10T03:58:52.766Z,983.45
2018-07-10T03:59:52.729Z,983.44
2018-07-10T04:00:52.680Z,983.40
2018-07-10T04:01:52.640Z,983.38
2018-07-10T04:02:52.655Z,983.32
2018-07-10T04:03:52.610Z,983.30
2018-07-10T04:04:52.612Z,983.32
2018-07-10T04:05:52.513Z,983.31
2018-07-10T04:06:52.512Z,983.30
2018-07-10T04:07:52.431Z,983.34
2018-07-10T04:08:52.408Z,983.32
2018-07-10T04:09:52.414Z,983.36
2018-07-10T04:10:52.581Z,983.32
2018-07-10T04:11:52.337Z,983.39
2018-07-10T04:12:52.279Z,983.37
2018-07-10T04:13:52.282Z,983.34
2018-07-10T04:14:52.233Z,983.34
2018-07-10T04:15:52.161Z,983.33
2018-07-10T04:16:52.141Z,983.32
2018-07-10T04:17:52.111Z,983.31
2018-07-10T04:18:52.073Z,983.30
2018-07-10T04:19:52.042Z,983.29
2018-07-10T04:20:51.980Z,983.31
2018-07-10T04:21:51.975Z,983.32
2018-07-10T04:22:51.980Z,983.29
2018-07-10T04:23:51.949Z,983.27
2018-07-10T04:24:51.855Z,983.30
2018-07-10T04:25:51.816Z,983.27
2018-07-10T04:26:51.799Z,983.27
2018-07-10T04:27:51.770Z,983.30
2018-07-10T04:28:51.749Z,983.32
2018-07-10T04:29:51.714Z,983.32
2018-07-10T04:30:51.634Z,983.29
2018-07-10T04:31:51.613Z,983.29
2018-07-10T04:32:51.569Z,983.32
2018-07-10T04:33:51.542Z,983.26
2018-07-10T04:34:51.515Z,983.30
2018-07-10T05:02:00.758Z,983.20
2018-07-10T05:03:00.621Z,983.20
2018-07-10T05:04:00.542Z,983.19
2018-07-10T05:05:00.715Z,983.20
2018-07-10T05:06:00.447Z,983.22
2018-07-10T05:07:00.389Z,983.26
2018-07-10T05:08:00.491Z,983.30
2018-07-10T05:09:00.287Z,983.29
2018-07-10T05:10:00.256Z,983.24
2018-07-10T05:11:00.236Z,983.23
2018-07-10T05:12:00.473Z,983.29
2018-07-10T05:13:00.687Z,983.40
2018-07-10T05:14:00.122Z,983.39
2018-07-10T05:15:00.184Z,983.42
2018-07-10T05:16:00.269Z,983.38
2018-07-10T05:17:00.050Z,983.33
2018-07-10T05:18:00.023Z,983.41
2018-07-10T05:19:00.781Z,983.36
2018-07-10T05:19:59.947Z,983.40
2018-07-10T05:20:59.983Z,983.36
2018-07-10T05:21:59.838Z,983.32
2018-07-10T05:22:59.864Z,983.37
2018-07-10T05:23:59.851Z,983.40
2018-07-10T05:24:59.865Z,983.38
2018-07-10T05:25:59.766Z,983.42
2018-07-10T05:26:59.719Z,983.46
2018-07-10T05:27:59.651Z,983.45
2018-07-10T05:28:59.870Z,983.50
2018-07-10T05:29:59.598Z,983.49
2018-07-10T05:30:59.907Z,983.51
2018-07-10T05:31:59.498Z,983.48
2018-07-10T05:32:59.490Z,983.48
2018-07-10T05:33:59.716Z,983.44
2018-07-10T05:34:59.422Z,983.49
2018-07-10T05:35:59.397Z,983.47
2018-07-10T05:36:59.409Z,983.48
2018-07-10T05:37:59.355Z,983.45
2018-07-10T05:38:59.368Z,983.40
2018-07-10T05:39:59.281Z,983.39
2018-07-10T05:40:59.536Z,983.43
2018-07-10T05:41:59.298Z,983.47
2018-07-10T05:42:59.565Z,983.48
2018-07-10T05:43:59.158Z,983.49
2018-07-10T05:44:59.199Z,983.49
2018-07-10T05:45:59.165Z,983.46
2018-07-10T05:46:59.420Z,983.49
2018-07-10T05:48:00.329Z,983.45
2018-07-10T05:48:59.021Z,983.40
2018-07-10T05:50:17.387Z,983.39
2018-07-10T05:50:59.605Z,983.39
2018-07-10T05:51:58.938Z,983.38
2018-07-10T05:52:58.744Z,983.39
2018-07-10T05:53:58.752Z,983.36
2018-07-10T05:54:58.786Z,983.36
2018-07-10T05:55:58.742Z,983.38
2018-07-10T05:56:58.643Z,983.42
2018-07-10T05:57:58.649Z,983.40
2018-07-10T05:58:58.572Z,983.42
2018-07-10T05:59:58.534Z,983.42
2018-07-10T06:00:58.502Z,983.44
2018-07-10T06:01:58.809Z,983.45
2018-07-10T06:02:58.494Z,983.47
2018-07-10T06:03:58.363Z,983.49
2018-07-10T06:04:58.308Z,983.48
2018-07-10T06:05:58.311Z,983.52
2018-07-10T06:06:58.654Z,983.55
2018-07-10T06:07:58.260Z,983.53
2018-07-10T06:08:58.225Z,983.56
2018-07-10T06:09:58.125Z,983.58
2018-07-10T06:10:58.148Z,983.58
2018-07-10T06:11:58.075Z,983.65
2018-07-10T06:12:58.206Z,983.64
2018-07-10T06:13:58.158Z,983.66
2018-07-10T06:14:57.956Z,983.66
2018-07-10T06:15:58.058Z,983.66
2018-07-10T06:16:57.893Z,983.62
2018-07-10T06:17:57.890Z,983.63
2018-07-10T06:18:57.915Z,983.64
2018-07-10T06:19:57.931Z,983.60
2018-07-10T06:20:57.859Z,983.59
2018-07-10T06:21:57.864Z,983.55
2018-07-10T06:22:57.894Z,983.55
2018-07-10T06:23:57.853Z,983.58
2018-07-10T06:24:57.736Z,983.59
2018-07-10T06:25:57.617Z,983.63
2018-07-10T06:26:57.576Z,983.59
2018-07-10T06:27:57.737Z,983.59
2018-07-10T06:28:57.605Z,983.56
2018-07-10T06:29:57.900Z,983.62
2018-07-10T06:30:57.494Z,983.56
2018-07-10T06:31:57.340Z,983.61
2018-07-10T06:32:57.408Z,983.61
2018-07-10T06:33:57.402Z,983.67
2018-07-10T06:34:57.444Z,983.70
2018-07-10T06:35:57.202Z,983.69
2018-07-10T06:36:58.112Z,983.72
2018-07-10T06:37:57.380Z,983.71
2018-07-10T06:38:57.621Z,983.74
2018-07-10T06:39:57.290Z,983.76
2018-07-10T06:40:58.854Z,983.78
2018-07-10T06:41:57.156Z,983.81
2018-07-10T06:42:57.228Z,983.77
2018-07-10T06:43:57.085Z,983.78
2018-07-10T06:44:57.238Z,983.84
2018-07-10T06:45:56.999Z,983.81
2018-07-10T06:46:56.868Z,983.85
2018-07-10T06:47:57.234Z,983.78
2018-07-10T06:48:57.030Z,983.77
2018-07-10T06:49:56.987Z,983.83
2018-07-10T06:50:56.817Z,983.78
2018-07-10T06:51:56.701Z,983.76
2018-07-10T06:52:56.825Z,983.77
2018-07-10T06:53:56.658Z,983.79
2018-07-10T06:54:56.710Z,983.78
2018-07-10T06:55:56.595Z,983.78
2018-07-10T06:56:56.538Z,983.77
2018-07-10T06:57:56.473Z,983.78
2018-07-10T06:58:56.565Z,983.76
2018-07-10T06:59:56.560Z,983.79
2018-07-10T07:00:56.500Z,983.77
2018-07-10T07:01:56.608Z,983.76
2018-07-10T07:02:56.477Z,983.77
2018-07-10T07:03:56.388Z,983.79
2018-07-10T07:04:56.346Z,983.82
2018-07-10T07:05:56.259Z,983.82
2018-07-10T07:06:57.321Z,983.82
2018-07-10T07:07:56.409Z,983.82
2018-07-10T07:08:57.356Z,983.82
2018-07-10T07:09:56.036Z,983.83
2018-07-10T07:10:56.139Z,983.82
2018-07-10T07:11:56.128Z,983.82
2018-07-10T07:12:56.267Z,983.85
2018-07-10T07:13:56.275Z,983.83
2018-07-10T07:14:56.267Z,983.81
2018-07-10T07:15:55.977Z,983.85
2018-07-10T07:16:55.875Z,983.88
2018-07-10T07:17:55.757Z,983.91
2018-07-10T07:18:55.714Z,983.89
2018-07-10T07:19:55.661Z,983.92
2018-07-10T07:20:55.706Z,983.94
2018-07-10T07:21:55.583Z,983.94
2018-07-10T07:22:55.714Z,983.98
2018-07-10T07:23:55.728Z,983.93
2018-07-10T07:24:55.471Z,983.95
2018-07-10T07:25:55.430Z,983.96
2018-07-10T07:26:55.477Z,983.97
2018-07-10T07:27:55.550Z,983.99
2018-07-10T07:28:55.615Z,983.94
2018-07-10T07:29:55.460Z,983.95
2018-07-10T07:30:55.543Z,983.92
2018-07-10T07:31:55.427Z,983.94
2018-07-10T07:32:55.323Z,983.93
2018-07-10T07:33:55.286Z,983.93
2018-07-10T07:34:55.160Z,983.87
2018-07-10T07:35:55.293Z,983.89
2018-07-10T07:36:55.236Z,983.87
2018-07-10T07:37:55.133Z,983.88
2018-07-10T07:38:55.015Z,983.86
2018-07-10T07:39:54.975Z,983.90
2018-07-10T07:40:54.881Z,983.93
2018-07-10T07:41:54.866Z,983.94
2018-07-10T07:42:55.336Z,983.97
2018-07-10T07:43:55.033Z,983.99
2018-07-10T07:44:54.748Z,984.00
2018-07-10T07:45:54.789Z,984.00
2018-07-10T07:46:54.751Z,984.03
2018-07-10T07:47:54.809Z,983.99
2018-07-10T07:48:54.737Z,983.99
2018-07-10T07:49:54.638Z,984.03
2018-07-10T07:50:54.640Z,984.01
2018-07-10T07:51:54.706Z,984.03
2018-07-10T07:52:54.625Z,984.00
2018-07-10T07:53:54.609Z,984.01
2018-07-10T07:54:54.460Z,983.98
2018-07-10T07:55:54.403Z,983.99
2018-07-10T07:56:54.457Z,983.99
2018-07-10T07:57:54.333Z,983.99
2018-07-10T07:58:54.386Z,983.98
2018-07-10T07:59:54.905Z,983.97
2018-07-10T08:00:54.199Z,983.99
2018-07-10T08:01:54.279Z,983.96
2018-07-10T08:02:54.103Z,984.00
2018-07-10T08:03:54.148Z,983.97
2018-07-10T08:04:55.082Z,983.95
2018-07-10T08:05:54.216Z,983.97
2018-07-10T08:06:54.009Z,983.95
2018-07-10T08:07:53.942Z,983.92
2018-07-10T08:08:53.919Z,983.94
2018-07-10T08:09:53.838Z,983.92
2018-07-10T08:10:53.896Z,983.92
2018-07-10T08:11:53.815Z,983.89
2018-07-10T08:12:53.825Z,983.90
2018-07-10T08:13:53.804Z,983.93
2018-07-10T08:14:53.671Z,983.97
2018-07-10T08:15:53.708Z,984.01
2018-07-10T08:16:53.783Z,983.99
2018-07-10T08:17:53.597Z,983.99
2018-07-10T08:18:53.540Z,983.97
2018-07-10T08:19:53.478Z,983.98
2018-07-10T08:20:53.517Z,983.98
2018-07-10T08:21:53.811Z,984.01
2018-07-10T08:22:53.408Z,983.97
2018-07-10T08:23:53.393Z,983.97
2018-07-10T08:24:53.367Z,983.99
2018-07-10T08:25:53.269Z,983.98
2018-07-10T08:26:53.310Z,984.01
2018-07-10T08:27:53.380Z,983.96
2018-07-10T08:28:53.267Z,983.95
2018-07-10T08:29:53.162Z,983.89
2018-07-10T08:30:53.103Z,983.87
2018-07-10T08:31:53.094Z,983.85
2018-07-10T08:32:53.059Z,983.84
2018-07-10T08:33:53.095Z,983.82
2018-07-10T08:34:52.954Z,983.75
2018-07-10T08:35:52.948Z,983.81
2018-07-10T08:36:52.877Z,983.75
2018-07-10T08:37:52.852Z,983.77
2018-07-10T08:38:52.811Z,983.79
2018-07-10T08:39:52.765Z,983.74
2018-07-10T08:40:52.758Z,983.77
2018-07-10T08:41:52.744Z,983.72
2018-07-10T08:42:52.704Z,983.71
2018-07-10T08:43:52.644Z,983.70
2018-07-10T08:44:52.612Z,983.73
2018-07-10T08:45:52.572Z,983.72
2018-07-10T08:46:52.627Z,983.72
2018-07-10T08:47:52.495Z,983.70
2018-07-10T08:48:52.489Z,983.71
2018-07-10T08:49:52.436Z,983.69
2018-07-10T08:50:52.409Z,983.68
2018-07-10T08:51:52.391Z,983.68
2018-07-10T08:52:52.324Z,983.66
2018-07-10T08:53:52.288Z,983.72
2018-07-10T08:54:52.250Z,983.71
2018-07-10T08:55:52.224Z,983.69
2018-07-10T08:56:52.199Z,983.63
2018-07-10T08:57:52.147Z,983.64
2018-07-10T08:58:52.106Z,983.67
2018-07-10T08:59:52.094Z,983.67
2018-07-10T09:00:52.057Z,983.69
2018-07-10T09:01:52.010Z,983.67
2018-07-10T09:02:51.996Z,983.71
2018-07-10T09:03:51.978Z,983.76
2018-07-10T09:04:51.949Z,983.76
2018-07-10T09:05:51.891Z,983.75
2018-07-10T09:06:51.865Z,983.74
2018-07-10T09:07:51.846Z,983.76
2018-07-10T09:08:51.778Z,983.72
2018-07-10T09:09:51.742Z,983.75
2018-07-10T09:10:51.728Z,983.70
2018-07-10T09:11:51.691Z,983.73
2018-07-10T09:12:51.652Z,983.72
2018-07-10T09:13:51.629Z,983.75
2018-07-10T09:14:51.597Z,983.73
2018-07-10T09:15:52.423Z,983.76
2018-07-10T09:16:51.530Z,983.74
2018-07-10T09:17:51.498Z,983.75
2018-07-10T09:18:51.551Z,983.73
2018-07-10T09:19:51.457Z,983.77
2018-07-10T09:20:51.404Z,983.71
2018-07-10T09:21:51.357Z,983.74
2018-07-10T09:22:51.347Z,983.76
2018-07-10T09:23:51.340Z,983.75
2018-07-10T09:24:51.283Z,983.80
2018-07-10T09:25:51.246Z,983.82
2018-07-10T09:26:51.227Z,983.83
2018-07-10T09:27:51.219Z,983.86
2018-07-10T09:28:51.184Z,983.83
2018-07-10T09:29:51.131Z,983.82
2018-07-10T09:30:51.098Z,983.76
2018-07-10T09:31:51.090Z,983.72
2018-07-10T09:32:51.041Z,983.72
2018-07-10T09:33:51.048Z,983.67
2018-07-10T09:34:51.087Z,983.64
2018-07-10T09:35:50.951Z,983.62
2018-07-10T09:36:50.927Z,983.60
2018-07-10T09:37:50.967Z,983.59
2018-07-10T09:38:50.885Z,983.58
2018-07-10T09:39:50.850Z,983.56
2018-07-10T09:40:50.818Z,983.65
2018-07-10T09:41:50.805Z,983.62
2018-07-10T09:42:50.801Z,983.64
2018-07-10T09:43:50.725Z,983.63
2018-07-10T09:44:50.717Z,983.60
2018-07-10T09:45:50.678Z,983.62
2018-07-10T09:46:50.651Z,983.61
2018-07-10T09:47:50.613Z,983.61
2018-07-10T09:48:50.611Z,983.58
2018-07-10T09:49:50.567Z,983.56
2018-07-10T09:50:50.539Z,983.55
2018-07-10T09:51:50.533Z,983.59
2018-07-10T09:52:50.486Z,983.54
2018-07-10T09:53:50.480Z,983.55
2018-07-10T09:54:50.492Z,983.58
2018-07-10T09:55:50.431Z,983.59
2018-07-10T09:56:50.432Z,983.56
2018-07-10T09:57:50.352Z,983.57
2018-07-10T09:58:50.326Z,983.56
2018-07-10T09:59:50.321Z,983.56
2018-07-10T10:00:50.309Z,983.53
2018-07-10T10:01:50.307Z,983.55
2018-07-10T10:02:50.259Z,983.53
2018-07-10T10:03:50.215Z,983.55
2018-07-10T10:04:50.198Z,983.59
2018-07-10T10:05:50.169Z,983.59
2018-07-10T10:06:50.117Z,983.59
2018-07-10T10:07:50.079Z,983.59
2018-07-10T10:08:50.078Z,983.58
2018-07-10T10:09:50.063Z,983.56
2018-07-10T10:10:50.037Z,983.53
2018-07-10T10:11:50.067Z,983.47
2018-07-10T10:12:50.001Z,983.51
2018-07-10T10:13:49.963Z,983.49
2018-07-10T10:14:49.986Z,983.44
2018-07-10T10:15:49.907Z,983.44
2018-07-10T10:16:49.861Z,983.43
2018-07-10T10:17:49.841Z,983.42
2018-07-10T10:18:49.814Z,983.39
2018-07-10T10:19:49.787Z,983.39
2018-07-10T10:20:49.811Z,983.41
2018-07-10T10:21:49.771Z,983.39
2018-07-10T10:22:49.714Z,983.36
2018-07-10T10:23:49.677Z,983.38
2018-07-10T10:24:49.647Z,983.39
2018-07-10T10:25:49.651Z,983.39
2018-07-10T10:26:49.606Z,983.41
2018-07-10T10:27:49.602Z,983.40
2018-07-10T10:28:49.547Z,983.41
2018-07-10T10:29:49.532Z,983.38
2018-07-10T10:30:49.499Z,983.38
2018-07-10T10:31:49.474Z,983.35
2018-07-10T10:32:50.369Z,983.41
2018-07-10T10:33:49.415Z,983.36
2018-07-10T10:34:49.401Z,983.40
2018-07-10T10:35:49.451Z,983.35
2018-07-10T10:36:49.350Z,983.38
2018-07-10T10:37:49.318Z,983.32
2018-07-10T10:38:49.296Z,983.35
2018-07-10T10:39:49.272Z,983.36
2018-07-10T10:40:49.239Z,983.34
2018-07-10T10:41:49.244Z,983.31
2018-07-10T10:42:49.191Z,983.34
2018-07-10T10:43:49.170Z,983.27
2018-07-10T10:44:49.157Z,983.31
2018-07-10T10:45:49.124Z,983.24
2018-07-10T10:46:49.092Z,983.26
2018-07-10T10:47:49.052Z,983.23
2018-07-10T10:48:49.035Z,983.22
2018-07-10T10:49:49.011Z,983.19
2018-07-10T10:50:48.992Z,983.18
2018-07-10T10:51:48.949Z,983.17
2018-07-10T10:52:48.947Z,983.17
2018-07-10T10:53:48.913Z,983.19
2018-07-10T10:54:48.919Z,983.17
2018-07-10T10:55:48.859Z,983.17
2018-07-10T10:56:48.833Z,983.20
2018-07-10T10:57:48.801Z,983.19
2018-07-10T10:58:48.776Z,983.20
2018-07-10T10:59:48.750Z,983.20
2018-07-10T11:00:48.715Z,983.23
2018-07-10T11:01:48.713Z,983.19
2018-07-10T11:02:48.669Z,983.20
2018-07-10T11:03:48.641Z,983.16
2018-07-10T11:04:48.617Z,983.19
2018-07-10T11:05:48.583Z,983.18
2018-07-10T11:06:48.566Z,983.19
2018-07-10T11:07:48.537Z,983.20
2018-07-10T11:08:48.506Z,983.17
2018-07-10T11:09:48.476Z,983.15
2018-07-10T11:10:48.459Z,983.12
2018-07-10T11:11:48.418Z,983.09
2018-07-10T11:12:48.391Z,983.08
2018-07-10T11:13:48.366Z,983.05
2018-07-10T11:14:48.342Z,983.03
2018-07-10T11:15:48.319Z,983.05
2018-07-10T11:16:48.277Z,983.05
2018-07-10T11:17:48.275Z,983.08
2018-07-10T11:18:48.229Z,983.10
2018-07-10T11:19:48.205Z,983.08
2018-07-10T11:20:48.184Z,983.11
2018-07-10T11:21:48.160Z,983.09
2018-07-10T11:22:48.115Z,983.11
2018-07-10T11:23:48.091Z,983.08
2018-07-10T11:24:48.067Z,983.06
2018-07-10T11:25:48.042Z,983.08
2018-07-10T11:26:48.010Z,983.09
2018-07-10T11:27:47.981Z,983.09
2018-07-10T11:28:47.952Z,983.09
2018-07-10T11:29:47.940Z,983.08
2018-07-10T11:30:47.903Z,983.12
2018-07-10T11:31:47.870Z,983.09
2018-07-10T11:32:47.850Z,983.08
2018-07-10T11:33:47.825Z,983.09
2018-07-10T11:34:47.786Z,983.08
2018-07-10T11:35:47.759Z,983.07
2018-07-10T11:36:47.724Z,983.08
2018-07-10T11:37:47.710Z,983.10
2018-07-10T11:38:47.674Z,983.12
2018-07-10T11:39:47.641Z,983.08
2018-07-10T11:40:47.615Z,983.13
2018-07-10T11:41:47.589Z,983.15
2018-07-10T11:42:47.646Z,983.13
2018-07-10T11:43:47.539Z,983.13
2018-07-10T11:44:47.513Z,983.17
2018-07-10T11:45:47.573Z,983.15
2018-07-10T11:46:47.494Z,983.17
2018-07-10T11:47:47.421Z,983.14
2018-07-10T11:48:47.408Z,983.15
2018-07-10T11:49:47.376Z,983.16
2018-07-10T11:50:47.320Z,983.20
2018-07-10T11:51:47.379Z,983.22
2018-07-10T11:52:47.283Z,983.20
2018-07-10T11:53:47.251Z,983.19
2018-07-10T11:54:47.223Z,983.20
2018-07-10T11:55:47.224Z,983.15
2018-07-10T11:56:47.192Z,983.17
2018-07-10T11:57:47.134Z,983.20
2018-07-10T11:58:47.111Z,983.15
2018-07-10T11:59:47.079Z,983.19
2018-07-10T12:00:47.060Z,983.17
2018-07-10T12:01:47.049Z,983.13
2018-07-10T12:02:46.994Z,983.10
2018-07-10T12:03:46.972Z,983.14
2018-07-10T12:04:46.937Z,983.11
2018-07-10T12:05:46.903Z,983.12
2018-07-10T12:06:46.871Z,983.12
2018-07-10T12:07:46.848Z,983.11
2018-07-10T12:08:46.829Z,983.10
2018-07-10T12:09:46.783Z,983.12
2018-07-10T12:10:46.785Z,983.09
2018-07-10T12:11:46.726Z,983.11
2018-07-10T12:12:46.723Z,983.10
2018-07-10T12:13:46.664Z,983.11
2018-07-10T12:14:46.644Z,983.12
2018-07-10T12:15:46.614Z,983.05
2018-07-10T12:16:46.591Z,983.12
2018-07-10T12:17:46.568Z,983.10
2018-07-10T12:18:46.529Z,983.08
2018-07-10T12:19:46.536Z,983.10
2018-07-10T12:20:46.508Z,983.11
2018-07-10T12:21:46.455Z,983.07
2018-07-10T12:22:46.416Z,983.08
2018-07-10T12:23:46.387Z,983.05
2018-07-10T12:24:46.365Z,983.07
2018-07-10T12:25:46.345Z,983.04
2018-07-10T12:26:46.340Z,983.04
2018-07-10T12:27:46.274Z,983.03
2018-07-10T12:28:46.278Z,983.04
2018-07-10T12:29:46.230Z,983.04
2018-07-10T12:30:46.207Z,983.01
2018-07-10T12:31:46.177Z,983.04
2018-07-10T12:32:46.168Z,983.03
2018-07-10T12:33:46.111Z,982.99
2018-07-10T12:34:46.121Z,983.01
2018-07-10T12:35:46.058Z,983.06
2018-07-10T12:36:46.044Z,983.02
2018-07-10T12:37:46.025Z,983.01
2018-07-10T12:38:45.973Z,982.96
2018-07-10T12:39:45.947Z,983.00
2018-07-10T12:40:45.963Z,983.02
2018-07-10T12:41:45.947Z,983.03
2018-07-10T12:42:45.871Z,983.02
2018-07-10T12:43:45.838Z,983.00
2018-07-10T12:44:45.828Z,983.01
2018-07-10T12:45:45.784Z,983.03
2018-07-10T12:46:45.786Z,983.05
2018-07-10T12:47:45.742Z,983.03
2018-07-10T12:48:45.722Z,983.01
2018-07-10T12:49:45.677Z,982.98
2018-07-10T12:50:45.660Z,983.00
2018-07-10T12:51:45.620Z,983.01
2018-07-10T12:52:45.600Z,982.98
2018-07-10T12:53:45.556Z,982.98